createdAt,value
2023-02-27T00:01:33.979Z,27.20
2023-02-27T00:04:01.913Z,27.27
2023-02-27T00:06:30.018Z,27.10
2023-02-27T00:08:58.220Z,27.32
2023-02-27T00:11:26.583Z,26.99
2023-02-27T00:13:56.163Z,27.21
2023-02-27T00:16:24.079Z,27.19
2023-02-27T00:18:52.291Z,27.05
2023-02-27T00:21:20.573Z,26.84
2023-02-27T00:23:48.465Z,27.16
2023-02-27T00:26:16.365Z,26.92
2023-02-27T00:28:44.293Z,27.05
2023-02-27T00:31:13.586Z,26.98
2023-02-27T00:33:41.824Z,27.17
2023-02-27T00:36:09.788Z,27.17
2023-02-27T00:38:37.996Z,27.12
2023-02-27T00:41:06.296Z,26.81
2023-02-27T00:43:34.190Z,27.28
2023-02-27T00:46:02.053Z,26.84
2023-02-27T00:48:31.684Z,27.07
2023-02-27T00:50:59.574Z,27.33
2023-02-27T00:53:27.509Z,26.90
2023-02-27T00:55:55.446Z,27.06
2023-02-27T00:58:23.642Z,26.87
2023-02-27T01:00:51.562Z,27.08
2023-02-27T01:03:19.543Z,27.01
2023-02-27T01:05:48.810Z,27.05
2023-02-27T01:08:16.734Z,27.24
2023-02-27T01:10:44.883Z,26.94
2023-02-27T01:13:12.890Z,27.10
2023-02-27T01:15:40.778Z,26.76
2023-02-27T01:18:08.730Z,27.01
2023-02-27T01:20:36.894Z,26.84
2023-02-27T01:23:06.256Z,26.92
2023-02-27T01:25:34.782Z,26.90
2023-02-27T01:28:03.001Z,27.16
2023-02-27T01:30:30.955Z,26.75
2023-02-27T01:32:58.914Z,26.75
2023-02-27T01:35:26.809Z,26.98
2023-02-27T01:37:54.741Z,26.70
2023-02-27T01:40:24.381Z,27.18
2023-02-27T01:42:52.293Z,26.81
2023-02-27T01:45:33.549Z,27.26
2023-02-27T01:48:09.542Z,26.90
2023-02-27T01:50:38.214Z,26.90
2023-02-27T01:53:06.085Z,26.81
2023-02-27T01:55:38.214Z,26.82
2023-02-27T01:58:06.426Z,26.94
2023-02-27T02:00:34.616Z,26.93
2023-02-27T02:03:08.289Z,26.93
2023-02-27T02:05:36.192Z,26.70
2023-02-27T02:08:04.312Z,26.69
2023-02-27T02:10:32.891Z,26.90
2023-02-27T02:13:02.142Z,26.85
2023-02-27T02:15:33.171Z,26.69
2023-02-27T02:18:06.299Z,27.12
2023-02-27T02:21:06.858Z,26.92
2023-02-27T02:24:02.396Z,27.22
2023-02-27T02:26:50.680Z,26.82
2023-02-27T02:29:50.919Z,26.98
2023-02-27T02:32:56.536Z,27.08
2023-02-27T02:35:52.187Z,27.00
2023-02-27T02:38:56.753Z,26.75
2023-02-27T02:41:28.430Z,26.67
2023-02-27T02:44:02.204Z,26.96
2023-02-27T02:46:32.676Z,26.78
2023-02-27T02:49:02.698Z,26.76
2023-02-27T02:51:32.907Z,26.63
2023-02-27T02:54:03.990Z,26.61
2023-02-27T02:56:33.771Z,26.82
2023-02-27T02:59:04.445Z,26.70
2023-02-27T03:01:33.789Z,26.92
2023-02-27T03:04:04.824Z,27.13
2023-02-27T03:06:33.616Z,27.16
2023-02-27T03:09:08.407Z,27.00
2023-02-27T03:11:37.590Z,27.12
2023-02-27T03:14:07.980Z,26.98
2023-02-27T03:16:37.272Z,27.02
2023-02-27T03:19:08.898Z,27.12
2023-02-27T03:21:37.784Z,27.07
2023-02-27T03:24:08.928Z,26.89
2023-02-27T03:26:38.656Z,27.04
2023-02-27T03:29:08.688Z,26.78
2023-02-27T03:31:39.527Z,26.81
2023-02-27T03:34:13.534Z,27.02
2023-02-27T03:36:45.770Z,26.94
2023-02-27T03:39:22.765Z,26.65
2023-02-27T03:41:51.964Z,26.87
2023-02-27T03:44:24.911Z,26.93
2023-02-27T03:46:52.804Z,26.81
2023-02-27T03:49:20.809Z,27.07
2023-02-27T03:51:48.739Z,26.86
2023-02-27T03:54:19.547Z,27.00
2023-02-27T03:56:50.148Z,26.91
2023-02-27T03:59:18.349Z,26.84
2023-02-27T04:01:46.339Z,26.97
2023-02-27T04:04:15.587Z,26.72
2023-02-27T04:07:03.030Z,26.60
2023-02-27T04:09:42.611Z,26.84
2023-02-27T04:12:22.085Z,26.59
2023-02-27T04:14:58.258Z,27.13
2023-02-27T04:17:26.199Z,27.14
2023-02-27T04:20:31.214Z,26.58
2023-02-27T04:23:00.760Z,26.49
2023-02-27T04:25:42.891Z,27.02
2023-02-27T04:28:17.450Z,26.92
2023-02-27T04:30:54.145Z,27.04
2023-02-27T04:33:26.949Z,26.90
2023-02-27T04:35:55.898Z,26.71
2023-02-27T04:38:27.243Z,26.82
2023-02-27T04:40:57.576Z,26.92
2023-02-27T04:43:25.759Z,26.67
2023-02-27T04:45:53.679Z,26.82
2023-02-27T04:48:23.941Z,26.70
2023-02-27T04:50:53.491Z,26.94
2023-02-27T04:53:23.064Z,27.02
2023-02-27T04:55:51.918Z,26.94
2023-02-27T04:58:23.804Z,26.89
2023-02-27T05:00:56.063Z,26.89
2023-02-27T05:03:25.339Z,26.64
2023-02-27T05:05:54.543Z,26.95
2023-02-27T05:08:23.412Z,26.50
2023-02-27T05:10:53.733Z,26.54
2023-02-27T05:13:26.067Z,26.90
2023-02-27T05:15:55.152Z,26.47
2023-02-27T05:18:23.344Z,26.51
2023-02-27T05:20:54.861Z,26.97
2023-02-27T05:23:24.956Z,26.46
2023-02-27T05:25:56.629Z,26.64
2023-02-27T05:28:30.005Z,26.59
2023-02-27T05:30:58.896Z,26.85
2023-02-27T05:33:28.195Z,26.66
2023-02-27T05:35:58.286Z,26.59
2023-02-27T05:38:27.306Z,26.82
2023-02-27T05:40:58.136Z,26.94
2023-02-27T05:43:28.978Z,26.84
2023-02-27T05:45:59.586Z,27.01
2023-02-27T05:48:28.766Z,26.85
2023-02-27T05:50:56.665Z,26.78
2023-02-27T05:53:25.990Z,26.83
2023-02-27T05:55:54.563Z,26.67
2023-02-27T05:58:25.348Z,26.66
2023-02-27T06:00:55.582Z,26.85
2023-02-27T06:03:23.535Z,26.64
2023-02-27T06:05:53.023Z,26.52
2023-02-27T06:08:21.403Z,26.88
2023-02-27T06:10:49.958Z,26.84
2023-02-27T06:13:18.147Z,26.42
2023-02-27T06:15:46.198Z,26.54
2023-02-27T06:18:15.778Z,26.52
2023-02-27T06:20:44.297Z,26.43
2023-02-27T06:23:12.321Z,26.83
2023-02-27T06:25:42.136Z,26.60
2023-02-27T06:28:10.568Z,26.78
2023-02-27T06:30:38.604Z,26.70
2023-02-27T06:33:06.527Z,26.42
2023-02-27T06:35:35.871Z,26.55
2023-02-27T06:38:05.050Z,26.42
2023-02-27T06:40:33.275Z,26.59
2023-02-27T06:43:01.139Z,26.43
2023-02-27T06:45:29.247Z,26.65
2023-02-27T06:47:57.175Z,26.58
2023-02-27T06:50:25.388Z,26.70
2023-02-27T06:52:54.704Z,26.83
2023-02-27T06:55:24.946Z,26.37
2023-02-27T06:57:52.870Z,26.31
2023-02-27T07:00:21.881Z,26.48
2023-02-27T07:02:49.807Z,26.51
2023-02-27T07:05:18.092Z,26.74
2023-02-27T07:07:46.209Z,26.65
2023-02-27T07:10:15.806Z,26.64
2023-02-27T07:12:43.703Z,26.32
2023-02-27T07:15:12.368Z,26.82
2023-02-27T07:17:40.562Z,26.36
2023-02-27T07:20:10.352Z,26.33
2023-02-27T07:22:38.526Z,26.45
2023-02-27T07:25:07.004Z,26.80
2023-02-27T07:27:36.285Z,26.62
2023-02-27T07:30:04.943Z,26.70
2023-02-27T07:32:32.899Z,26.52
2023-02-27T07:35:00.814Z,26.30
2023-02-27T07:37:28.749Z,26.54
2023-02-27T07:39:57.141Z,26.38
2023-02-27T07:42:25.071Z,26.40
2023-02-27T07:44:54.384Z,26.46
2023-02-27T07:47:22.265Z,26.36
2023-02-27T07:49:50.481Z,26.41
2023-02-27T07:52:18.434Z,26.53
2023-02-27T07:54:46.301Z,26.36
2023-02-27T07:57:14.448Z,26.64
2023-02-27T07:59:42.655Z,26.40
2023-02-27T08:02:12.578Z,26.40
2023-02-27T08:04:40.521Z,26.66
2023-02-27T08:07:08.493Z,26.62
2023-02-27T08:09:36.740Z,26.30
2023-02-27T08:12:05.049Z,26.41
2023-02-27T08:14:33.012Z,26.27
2023-02-27T08:17:01.366Z,26.22
2023-02-27T08:19:31.005Z,26.74
2023-02-27T08:21:58.974Z,26.45
2023-02-27T08:24:27.056Z,26.72
2023-02-27T08:26:55.046Z,26.68
2023-02-27T08:29:22.976Z,26.34
2023-02-27T08:31:51.083Z,26.27
2023-02-27T08:34:19.349Z,26.30
2023-02-27T08:36:48.658Z,26.59
2023-02-27T08:39:17.794Z,26.25
2023-02-27T08:41:45.680Z,26.19
2023-02-27T08:44:13.953Z,26.56
2023-02-27T08:46:41.927Z,26.33
2023-02-27T08:49:10.385Z,26.75
2023-02-27T08:51:38.332Z,26.45
2023-02-27T08:54:07.657Z,26.53
2023-02-27T08:56:35.846Z,26.19
2023-02-27T08:59:03.798Z,26.69
2023-02-27T09:01:34.606Z,26.33
2023-02-27T09:04:03.328Z,26.34
2023-02-27T09:06:31.899Z,26.23
2023-02-27T09:09:00.346Z,26.25
2023-02-27T09:11:29.989Z,26.54
2023-02-27T09:13:58.864Z,26.25
2023-02-27T09:16:27.220Z,26.79
2023-02-27T09:18:55.595Z,26.65
2023-02-27T09:21:24.645Z,26.53
2023-02-27T09:23:53.426Z,26.54
2023-02-27T09:26:26.612Z,26.41
2023-02-27T09:29:05.444Z,26.62
2023-02-27T09:31:34.048Z,26.71
2023-02-27T09:34:02.686Z,26.29
2023-02-27T09:36:30.638Z,26.76
2023-02-27T09:38:59.646Z,26.53
2023-02-27T09:41:48.168Z,26.28
2023-02-27T09:44:33.477Z,26.58
2023-02-27T09:47:14.360Z,26.69
2023-02-27T09:49:56.549Z,26.28
2023-02-27T09:52:24.429Z,26.78
2023-02-27T09:54:54.197Z,26.22
2023-02-27T09:57:28.173Z,26.37
2023-02-27T09:59:58.775Z,26.43
2023-02-27T10:02:34.332Z,26.53
2023-02-27T10:05:04.097Z,26.38
2023-02-27T10:07:34.026Z,26.13
2023-02-27T10:10:07.358Z,26.68
2023-02-27T10:12:50.249Z,26.63
2023-02-27T10:15:22.638Z,26.35
2023-02-27T10:17:51.602Z,26.36
2023-02-27T10:20:23.732Z,26.26
2023-02-27T10:22:51.627Z,26.47
2023-02-27T10:25:31.240Z,26.38
2023-02-27T10:28:03.764Z,26.56
2023-02-27T10:30:34.923Z,26.67
2023-02-27T10:33:07.482Z,26.22
2023-02-27T10:35:36.026Z,26.56
2023-02-27T10:38:05.510Z,26.53
2023-02-27T10:40:33.696Z,26.64
2023-02-27T10:43:03.675Z,26.37
2023-02-27T10:45:34.624Z,26.43
2023-02-27T10:48:02.812Z,26.16
2023-02-27T10:50:32.184Z,26.70
2023-02-27T10:53:00.772Z,26.00
2023-02-27T10:55:29.458Z,26.78
2023-02-27T10:57:57.685Z,26.85
2023-02-27T11:00:33.523Z,26.55
2023-02-27T11:03:02.854Z,26.61
2023-02-27T11:05:31.971Z,26.37
2023-02-27T11:08:14.534Z,26.58
2023-02-27T11:10:55.304Z,26.76
2023-02-27T11:13:25.845Z,26.32
2023-02-27T11:16:09.826Z,26.65
2023-02-27T11:18:39.469Z,26.27
2023-02-27T11:21:20.070Z,26.62
2023-02-27T11:23:56.030Z,26.33
2023-02-27T11:26:26.792Z,26.49
2023-02-27T11:29:08.674Z,26.51
2023-02-27T11:31:37.755Z,26.59
2023-02-27T11:34:08.270Z,26.51
2023-02-27T11:36:43.451Z,26.58
2023-02-27T11:39:24.118Z,26.83
2023-02-27T11:41:51.981Z,26.38
2023-02-27T11:44:34.107Z,26.51
2023-02-27T11:47:14.792Z,26.48
2023-02-27T11:49:58.327Z,26.52
2023-02-27T11:52:28.721Z,26.68
2023-02-27T11:54:56.866Z,26.21
2023-02-27T11:57:26.348Z,26.26
2023-02-27T11:59:56.847Z,26.50
2023-02-27T12:02:26.858Z,26.78
2023-02-27T12:04:57.469Z,26.62
2023-02-27T12:07:27.401Z,26.55
2023-02-27T12:10:00.904Z,26.50
2023-02-27T12:12:30.757Z,26.57
2023-02-27T12:15:02.337Z,26.49
2023-02-27T12:17:33.401Z,26.32
2023-02-27T12:20:34.023Z,26.79
2023-02-27T12:23:03.647Z,26.28
2023-02-27T12:25:43.469Z,26.57
2023-02-27T12:28:27.233Z,26.42
2023-02-27T12:31:02.551Z,26.38
2023-02-27T12:33:36.012Z,26.62
2023-02-27T12:36:04.759Z,26.69
2023-02-27T12:38:37.132Z,26.51
2023-02-27T12:41:27.681Z,26.46
2023-02-27T12:44:01.954Z,26.73
2023-02-27T12:46:37.169Z,26.45
2023-02-27T12:49:13.770Z,26.39
2023-02-27T12:51:45.273Z,26.65
2023-02-27T12:54:22.934Z,26.20
2023-02-27T12:56:57.921Z,26.62
2023-02-27T12:59:41.517Z,26.30
2023-02-27T13:02:29.686Z,26.84
2023-02-27T13:05:01.560Z,26.53
2023-02-27T13:07:32.632Z,26.68
2023-02-27T13:10:04.404Z,26.66
2023-02-27T13:12:35.166Z,26.50
2023-02-27T13:15:05.172Z,26.43
2023-02-27T13:17:35.457Z,26.30
2023-02-27T13:20:06.347Z,26.75
2023-02-27T13:22:35.394Z,26.42
2023-02-27T13:25:08.559Z,26.56
2023-02-27T13:27:37.622Z,26.39
2023-02-27T13:30:17.881Z,26.23
2023-02-27T13:32:48.539Z,26.75
2023-02-27T13:35:30.508Z,26.61
2023-02-27T13:38:01.592Z,26.29
2023-02-27T13:40:36.259Z,26.77
2023-02-27T13:43:06.437Z,26.71
2023-02-27T13:45:52.104Z,26.59
2023-02-27T13:48:40.761Z,26.65
2023-02-27T13:51:28.075Z,26.70
2023-02-27T13:54:08.913Z,26.47
2023-02-27T13:56:38.278Z,26.23
2023-02-27T13:59:12.009Z,26.71
2023-02-27T14:01:40.978Z,26.60
2023-02-27T14:04:08.934Z,26.72
2023-02-27T14:06:44.291Z,26.87
2023-02-27T14:09:15.244Z,26.90
2023-02-27T14:11:52.386Z,26.48
2023-02-27T14:14:41.768Z,26.71
2023-02-27T14:17:11.446Z,26.66
2023-02-27T14:19:59.267Z,26.67
2023-02-27T14:22:59.714Z,26.72
2023-02-27T14:25:32.966Z,26.46
2023-02-27T14:28:02.829Z,26.31
2023-02-27T14:30:41.840Z,26.70
2023-02-27T14:33:17.815Z,26.46
2023-02-27T14:35:56.905Z,26.69
2023-02-27T14:38:26.035Z,26.73
2023-02-27T14:41:02.221Z,26.31
2023-02-27T14:43:36.458Z,26.49
2023-02-27T14:46:09.091Z,26.44
2023-02-27T14:48:38.109Z,26.50
2023-02-27T14:51:06.711Z,26.42
2023-02-27T14:53:34.867Z,26.81
2023-02-27T14:56:02.811Z,26.67
2023-02-27T14:58:32.509Z,26.64
2023-02-27T15:01:06.047Z,26.30
2023-02-27T15:03:37.426Z,26.68
2023-02-27T15:06:14.275Z,26.49
2023-02-27T15:08:43.208Z,26.46
2023-02-27T15:11:14.894Z,26.40
2023-02-27T15:13:44.455Z,26.38
2023-02-27T15:16:34.468Z,26.72
2023-02-27T15:19:05.907Z,26.43
2023-02-27T15:21:35.152Z,26.26
2023-02-27T15:24:04.069Z,26.59
2023-02-27T15:26:35.102Z,26.36
2023-02-27T15:29:05.108Z,26.40
2023-02-27T15:31:33.062Z,26.37
2023-02-27T15:34:01.740Z,26.55
2023-02-27T15:36:31.070Z,26.70
2023-02-27T15:39:16.901Z,26.54
2023-02-27T15:41:49.268Z,26.77
2023-02-27T15:44:21.450Z,26.31
2023-02-27T15:46:49.424Z,26.52
2023-02-27T15:49:19.083Z,26.20
2023-02-27T15:51:55.885Z,26.35
2023-02-27T15:54:24.020Z,26.79
2023-02-27T15:56:52.431Z,26.45
2023-02-27T15:59:22.070Z,26.56
2023-02-27T16:01:50.818Z,26.63
2023-02-27T16:04:26.464Z,26.68
2023-02-27T16:06:59.630Z,26.55
2023-02-27T16:09:30.397Z,26.62
2023-02-27T16:12:20.719Z,26.56
2023-02-27T16:14:52.671Z,26.56
2023-02-27T16:17:28.621Z,26.19
2023-02-27T16:19:57.697Z,26.73
2023-02-27T16:22:26.128Z,26.47
2023-02-27T16:24:54.561Z,26.58
2023-02-27T16:27:24.768Z,26.53
2023-02-27T16:29:55.081Z,26.36
2023-02-27T16:32:26.995Z,26.26
2023-02-27T16:35:01.712Z,26.50
2023-02-27T16:37:33.635Z,26.66
2023-02-27T16:40:01.909Z,26.69
2023-02-27T16:42:29.862Z,26.31
2023-02-27T16:44:59.209Z,26.35
2023-02-27T16:47:28.871Z,26.36
2023-02-27T16:49:58.220Z,26.31
2023-02-27T16:52:26.122Z,26.47
2023-02-27T16:54:54.012Z,26.52
2023-02-27T16:57:27.935Z,26.48
2023-02-27T16:59:55.840Z,26.47
2023-02-27T17:02:25.196Z,26.26
2023-02-27T17:04:53.161Z,26.40
2023-02-27T17:07:21.141Z,26.23
2023-02-27T17:09:49.411Z,26.55
2023-02-27T17:12:17.352Z,26.78
2023-02-27T17:14:45.247Z,26.62
2023-02-27T17:17:13.209Z,26.07
2023-02-27T17:19:42.761Z,26.40
2023-02-27T17:22:10.716Z,26.42
2023-02-27T17:24:38.890Z,26.47
2023-02-27T17:27:06.797Z,26.63
2023-02-27T17:29:34.758Z,26.35
2023-02-27T17:32:02.756Z,26.30
2023-02-27T17:34:30.774Z,26.42
2023-02-27T17:37:00.090Z,26.16
2023-02-27T17:39:28.331Z,26.59
2023-02-27T17:41:56.263Z,26.66
2023-02-27T17:44:24.402Z,26.45
2023-02-27T17:46:52.478Z,26.44
2023-02-27T17:49:20.458Z,26.40
2023-02-27T17:51:48.639Z,26.59
2023-02-27T17:54:17.966Z,26.28
2023-02-27T17:56:45.894Z,26.24
2023-02-27T17:59:13.787Z,26.64
2023-02-27T18:01:41.748Z,26.77
2023-02-27T18:04:11.355Z,26.37
2023-02-27T18:06:39.284Z,26.43
2023-02-27T18:09:07.545Z,26.40
2023-02-27T18:11:37.701Z,26.55
2023-02-27T18:14:05.992Z,26.46
2023-02-27T18:16:34.362Z,26.71
2023-02-27T18:19:03.788Z,26.67
2023-02-27T18:21:31.761Z,26.26
2023-02-27T18:23:59.678Z,26.68
2023-02-27T18:26:30.729Z,26.79
2023-02-27T18:29:01.148Z,26.14
2023-02-27T18:31:30.761Z,26.48
2023-02-27T18:33:59.188Z,26.45
2023-02-27T18:36:27.788Z,26.20
2023-02-27T18:38:56.380Z,26.30
2023-02-27T18:41:24.556Z,26.33
2023-02-27T18:43:52.517Z,26.33
2023-02-27T18:46:22.070Z,26.62
2023-02-27T18:48:50.296Z,26.36
2023-02-27T18:51:18.496Z,26.50
2023-02-27T18:53:48.502Z,26.62
2023-02-27T18:56:17.117Z,26.56
2023-02-27T18:58:45.326Z,26.32
2023-02-27T19:01:21.126Z,26.13
2023-02-27T19:03:49.312Z,26.20
2023-02-27T19:06:17.677Z,26.41
2023-02-27T19:08:46.267Z,26.14
2023-02-27T19:11:23.567Z,26.65
2023-02-27T19:13:51.510Z,26.15
2023-02-27T19:16:19.419Z,26.65
2023-02-27T19:18:49.043Z,26.66
2023-02-27T19:21:17.062Z,26.22
2023-02-27T19:23:44.938Z,26.20
2023-02-27T19:26:12.923Z,26.09
2023-02-27T19:28:41.054Z,26.25
2023-02-27T19:31:09.427Z,26.55
2023-02-27T19:33:37.401Z,26.56
2023-02-27T19:36:11.251Z,26.50
2023-02-27T19:38:39.460Z,26.54
2023-02-27T19:41:10.677Z,26.36
2023-02-27T19:43:39.317Z,26.61
2023-02-27T19:46:07.824Z,26.39
2023-02-27T19:48:36.045Z,26.54
2023-02-27T19:51:04.243Z,26.37
2023-02-27T19:53:33.861Z,26.60
2023-02-27T19:56:01.942Z,26.21
2023-02-27T19:58:30.164Z,26.19
2023-02-27T20:00:58.188Z,26.62
2023-02-27T20:03:26.214Z,26.49
2023-02-27T20:05:54.135Z,26.48
2023-02-27T20:08:22.473Z,26.53
2023-02-27T20:10:58.248Z,26.20
2023-02-27T20:13:26.145Z,26.58
2023-02-27T20:15:58.233Z,25.94
2023-02-27T20:18:27.431Z,26.46
2023-02-27T20:21:02.307Z,26.39
2023-02-27T20:23:30.227Z,26.28
2023-02-27T20:25:59.749Z,26.03
2023-02-27T20:28:28.322Z,26.38
2023-02-27T20:30:56.269Z,26.37
2023-02-27T20:33:24.181Z,25.96
2023-02-27T20:35:52.232Z,26.32
2023-02-27T20:38:22.658Z,26.42
2023-02-27T20:40:51.215Z,26.22
2023-02-27T20:43:20.554Z,26.07
2023-02-27T20:45:48.545Z,26.05
2023-02-27T20:48:16.487Z,26.01
2023-02-27T20:50:44.720Z,25.96
2023-02-27T20:53:12.808Z,26.20
2023-02-27T20:55:47.960Z,26.01
2023-02-27T20:58:15.943Z,26.24
2023-02-27T21:00:45.225Z,26.01
2023-02-27T21:03:13.210Z,25.91
2023-02-27T21:05:47.586Z,26.41
2023-02-27T21:08:15.606Z,25.90
2023-02-27T21:10:44.385Z,26.14
2023-02-27T21:13:12.321Z,26.25
2023-02-27T21:15:40.353Z,25.97
2023-02-27T21:18:09.671Z,26.21
2023-02-27T21:20:37.852Z,26.25
2023-02-27T21:23:05.750Z,26.35
2023-02-27T21:25:33.644Z,25.98
2023-02-27T21:28:02.385Z,26.23
2023-02-27T21:30:30.423Z,25.85
2023-02-27T21:32:58.289Z,26.34
2023-02-27T21:35:28.521Z,26.38
2023-02-27T21:37:56.465Z,26.02
2023-02-27T21:40:24.670Z,25.86
2023-02-27T21:42:52.992Z,26.13
2023-02-27T21:45:21.047Z,26.34
2023-02-27T21:47:48.978Z,25.85
2023-02-27T21:50:18.270Z,26.21
2023-02-27T21:52:47.651Z,26.12
2023-02-27T21:55:16.124Z,26.29
2023-02-27T21:57:44.314Z,25.86
2023-02-27T22:00:13.900Z,26.01
2023-02-27T22:02:41.818Z,25.89
2023-02-27T22:05:10.256Z,26.33
2023-02-27T22:07:38.503Z,26.18
2023-02-27T22:10:08.811Z,26.07
2023-02-27T22:12:36.704Z,25.88
2023-02-27T22:15:05.341Z,25.91
2023-02-27T22:17:33.319Z,26.06
2023-02-27T22:20:01.596Z,25.92
2023-02-27T22:22:29.519Z,25.99
2023-02-27T22:24:57.431Z,26.30
2023-02-27T22:27:26.718Z,25.77
2023-02-27T22:29:54.738Z,25.79
2023-02-27T22:32:22.742Z,26.13
2023-02-27T22:34:50.942Z,25.83
2023-02-27T22:37:19.862Z,26.15
2023-02-27T22:39:48.072Z,26.13
2023-02-27T22:42:15.959Z,25.78
2023-02-27T22:44:45.310Z,26.08
2023-02-27T22:47:13.209Z,26.04
2023-02-27T22:49:41.601Z,25.76
2023-02-27T22:52:09.953Z,26.06
2023-02-27T22:54:37.887Z,26.25
2023-02-27T22:57:05.921Z,25.77
2023-02-27T22:59:34.123Z,26.01
2023-02-27T23:02:03.632Z,25.96
2023-02-27T23:04:31.605Z,25.94
2023-02-27T23:06:59.521Z,26.14
2023-02-27T23:09:27.693Z,25.96
2023-02-27T23:11:55.709Z,25.76
2023-02-27T23:14:23.714Z,26.14
2023-02-27T23:16:51.699Z,25.86
2023-02-27T23:19:21.728Z,25.76
2023-02-27T23:21:49.653Z,25.70
2023-02-27T23:24:18.266Z,25.88
2023-02-27T23:26:47.164Z,26.19
2023-02-27T23:29:15.098Z,25.90
2023-02-27T23:31:43.309Z,26.17
2023-02-27T23:34:11.275Z,25.69
2023-02-27T23:36:40.688Z,26.08
2023-02-27T23:39:08.920Z,25.96
2023-02-27T23:41:36.848Z,25.89
2023-02-27T23:44:04.843Z,25.68
2023-02-27T23:46:32.811Z,26.23
2023-02-27T23:49:01.187Z,26.09
2023-02-27T23:51:30.638Z,25.69
2023-02-27T23:54:00.212Z,25.81
2023-02-27T23:56:28.935Z,25.88
2023-02-27T23:58:58.188Z,26.05
